Price, Utah
Current Conditions -  °F | °C
As of 12:53 PM on Friday 24 Oct 2014 (Local Time) from KPUC Reporting Station
Clear Clear  
Wind Chill: 18°   Ceiling: Unl
Heat Index: 18°   Visibility: 10mi
Dew Point:   Wind: 8mph
Humidity: 29%   Direction: 150°SSE
Pressure: 30.32"   Gusts: NA
Location:  39.6°N, 110.81°W
Report Text: KPUC 241853Z AUTO 15007KT 10SM CLR 18/00 A3032 RMK AO2 SLP234 T01830000 TSNO
Loading
Personal Weather Stations






























Interactive Weather Map
Tropical Storm Tracking
New forecast layout! Learn more

10-Day Weather Forecast

Advertisements
Track Severe Weather on mobile